createdAt,value
2018-07-23T00:00:10.808Z,1016.7
2018-07-23T00:01:19.669Z,1016.67
2018-07-23T00:02:28.533Z,1016.69
2018-07-23T00:03:37.397Z,1016.69
2018-07-23T00:04:46.258Z,1016.69
2018-07-23T00:05:55.123Z,1016.68
2018-07-23T00:07:04.089Z,1016.69
2018-07-23T00:08:12.947Z,1016.66
2018-07-23T00:09:21.809Z,1016.68
2018-07-23T00:10:30.948Z,1016.67
2018-07-23T00:11:39.812Z,1016.64
2018-07-23T00:12:48.676Z,1016.68
2018-07-23T00:13:57.537Z,1016.67
2018-07-23T00:15:06.399Z,1016.67
2018-07-23T00:16:15.261Z,1016.62
2018-07-23T00:17:24.124Z,1016.68
2018-07-23T00:18:33.344Z,1016.67
2018-07-23T00:19:42.207Z,1016.65
2018-07-23T00:20:51.343Z,1016.68
2018-07-23T00:22:00.207Z,1016.65
2018-07-23T00:23:09.068Z,1016.64
2018-07-23T00:24:18.211Z,1016.64
2018-07-23T00:25:27.074Z,1016.62
2018-07-23T00:26:35.939Z,1016.61
2018-07-23T00:27:44.803Z,1016.58
2018-07-23T00:28:53.664Z,1016.58
2018-07-23T00:30:02.809Z,1016.55
2018-07-23T00:31:11.946Z,1016.59
2018-07-23T00:32:20.809Z,1016.54
2018-07-23T00:33:29.672Z,1016.56
2018-07-23T00:34:38.822Z,1016.56
2018-07-23T00:35:48.034Z,1016.57
2018-07-23T00:36:57.169Z,1016.6
2018-07-23T00:38:06.032Z,1016.59
2018-07-23T00:39:14.892Z,1016.59
2018-07-23T00:40:23.756Z,1016.59
2018-07-23T00:41:32.717Z,1016.6
2018-07-23T00:42:41.583Z,1016.62
2018-07-23T00:43:50.438Z,1016.61
2018-07-23T00:44:59.296Z,1016.62
2018-07-23T00:46:08.164Z,1016.56
2018-07-23T00:47:17.374Z,1016.59
2018-07-23T00:48:26.236Z,1016.62
2018-07-23T00:49:35.099Z,1016.58
2018-07-23T00:50:44.237Z,1016.6
2018-07-23T00:51:53.098Z,1016.62
2018-07-23T00:53:02.109Z,1016.61
2018-07-23T00:54:10.971Z,1016.61
2018-07-23T00:55:19.834Z,1016.64
2018-07-23T00:56:28.695Z,1016.65
2018-07-23T00:57:37.558Z,1016.64
2018-07-23T00:58:46.693Z,1016.59
2018-07-23T00:59:55.555Z,1016.53
2018-07-23T01:01:04.695Z,1016.59
2018-07-23T01:02:13.555Z,1016.59
2018-07-23T01:03:22.417Z,1016.61
2018-07-23T01:04:31.429Z,1016.61
2018-07-23T01:05:40.290Z,1016.63
2018-07-23T01:06:49.152Z,1016.65
2018-07-23T01:07:58.014Z,1016.65
2018-07-23T01:09:06.879Z,1016.67
2018-07-23T01:10:16.092Z,1016.62
2018-07-23T01:11:24.955Z,1016.66
2018-07-23T01:12:33.816Z,1016.64
2018-07-23T01:13:42.679Z,1016.62
2018-07-23T01:14:51.542Z,1016.59
2018-07-23T01:16:00.835Z,1016.63
2018-07-23T01:17:09.697Z,1016.65
2018-07-23T01:18:18.557Z,1016.62
2018-07-23T01:19:27.419Z,1016.64
2018-07-23T01:20:36.281Z,1016.65
2018-07-23T01:21:45.495Z,1016.62
2018-07-23T01:22:54.356Z,1016.62
2018-07-23T01:24:03.215Z,1016.61
2018-07-23T01:25:12.075Z,1016.59
2018-07-23T01:26:20.936Z,1016.58
2018-07-23T01:27:30.247Z,1016.58
2018-07-23T01:28:39.110Z,1016.56
2018-07-23T01:29:47.977Z,1016.57
2018-07-23T01:30:56.837Z,1016.56
2018-07-23T01:32:05.707Z,1016.54
2018-07-23T01:33:14.836Z,1016.57
2018-07-23T01:34:23.700Z,1016.64
2018-07-23T01:35:32.568Z,1016.62
2018-07-23T01:36:41.429Z,1016.63
2018-07-23T01:37:50.293Z,1016.58
2018-07-23T01:38:59.435Z,1016.66
2018-07-23T01:40:08.298Z,1016.64
2018-07-23T01:41:17.159Z,1016.61
2018-07-23T01:42:26.021Z,1016.64
2018-07-23T01:43:34.888Z,1016.59
2018-07-23T01:44:44.022Z,1016.64
2018-07-23T01:45:52.887Z,1016.61
2018-07-23T01:47:02.031Z,1016.61
2018-07-23T01:48:10.892Z,1016.6
2018-07-23T01:49:19.757Z,1016.61
2018-07-23T01:50:28.767Z,1016.59
2018-07-23T01:51:37.629Z,1016.62
2018-07-23T01:52:46.491Z,1016.58
2018-07-23T01:53:55.351Z,1016.59
2018-07-23T01:55:04.217Z,1016.61
2018-07-23T01:56:13.455Z,1016.65
2018-07-23T01:57:22.596Z,1016.64
2018-07-23T01:58:31.455Z,1016.62
2018-07-23T01:59:40.318Z,1016.64
2018-07-23T02:00:49.180Z,1016.62
2018-07-23T02:01:58.191Z,1016.65
2018-07-23T02:03:07.337Z,1016.66
2018-07-23T02:04:16.200Z,1016.68
2018-07-23T02:05:25.063Z,1016.64
2018-07-23T02:06:34.199Z,1016.67
2018-07-23T02:07:43.209Z,1016.69
2018-07-23T02:08:52.072Z,1016.72
2018-07-23T02:10:00.931Z,1016.74
2018-07-23T02:11:09.794Z,1016.73
2018-07-23T02:12:18.655Z,1016.72
2018-07-23T02:13:27.516Z,1016.75
2018-07-23T02:14:36.377Z,1016.76
2018-07-23T02:15:45.239Z,1016.76
2018-07-23T02:16:54.382Z,1016.77
2018-07-23T02:18:03.520Z,1016.79
2018-07-23T02:19:12.383Z,1016.75
2018-07-23T02:20:21.248Z,1016.78
2018-07-23T02:21:30.113Z,1016.77
2018-07-23T02:22:38.971Z,1016.75
2018-07-23T02:23:47.830Z,1016.76
2018-07-23T02:24:56.843Z,1016.8
2018-07-23T02:26:05.707Z,1016.83
2018-07-23T02:27:14.847Z,1016.86
2018-07-23T02:28:23.703Z,1016.81
2018-07-23T02:29:32.844Z,1016.86
2018-07-23T02:30:41.706Z,1016.88
2018-07-23T02:31:51.121Z,1016.9
2018-07-23T02:32:59.982Z,1016.88
2018-07-23T02:34:08.846Z,1016.87
2018-07-23T02:35:17.985Z,1016.89
2018-07-23T02:36:26.953Z,1016.9
2018-07-23T02:37:35.820Z,1016.9
2018-07-23T02:38:44.966Z,1016.89
2018-07-23T02:39:54.379Z,1016.9
2018-07-23T02:41:03.524Z,1016.95
2018-07-23T02:42:13.013Z,1016.89
2018-07-23T02:43:21.872Z,1016.91
2018-07-23T02:44:30.734Z,1016.9
2018-07-23T02:45:39.593Z,1016.92
2018-07-23T02:46:48.458Z,1016.89
2018-07-23T02:47:57.472Z,1016.92
2018-07-23T02:49:06.614Z,1016.88
2018-07-23T02:50:15.478Z,1016.87
2018-07-23T02:51:24.621Z,1016.84
2018-07-23T02:52:33.760Z,1016.87
2018-07-23T02:53:42.624Z,1016.89
2018-07-23T02:54:51.783Z,1016.91
2018-07-23T02:56:00.921Z,1016.88
2018-07-23T02:57:10.345Z,1016.88
2018-07-23T02:58:19.206Z,1016.89
2018-07-23T02:59:28.241Z,1016.91
2018-07-23T03:00:37.084Z,1016.9
2018-07-23T03:03:27.146Z,1016.94
2018-07-23T03:04:36.662Z,1016.95
2018-07-23T03:05:45.523Z,1016.97
2018-07-23T03:06:54.660Z,1017.02
2018-07-23T03:08:04.088Z,1017.01
2018-07-23T03:09:12.954Z,1017.02
2018-07-23T03:10:21.864Z,1017.05
2018-07-23T03:11:30.726Z,1017.06
2018-07-23T03:12:39.869Z,1017.04
2018-07-23T03:13:49.005Z,1017.05
2018-07-23T03:14:57.874Z,1017.09
2018-07-23T03:16:07.030Z,1017.08
2018-07-23T03:17:15.896Z,1017.07
2018-07-23T03:18:25.589Z,1017.04
2018-07-23T03:19:34.729Z,1017.05
2018-07-23T03:20:43.867Z,1017.09
2018-07-23T03:21:53.397Z,1017.11
2018-07-23T03:23:02.167Z,1017.11
2018-07-23T03:24:11.319Z,1017.1
2018-07-23T03:25:20.464Z,1017.1
2018-07-23T03:26:29.880Z,1017.13
2018-07-23T03:27:39.164Z,1017.14
2018-07-23T03:28:48.609Z,1017.14
2018-07-23T03:29:57.745Z,1017.16
2018-07-23T03:31:06.938Z,1017.14
2018-07-23T03:32:16.363Z,1017.19
2018-07-23T03:33:25.257Z,1017.23
2018-07-23T03:34:34.099Z,1017.2
2018-07-23T03:35:42.959Z,1017.2
2018-07-23T03:36:52.379Z,1017.21
2018-07-23T03:38:01.243Z,1017.2
2018-07-23T03:39:10.205Z,1017.14
2018-07-23T03:40:19.673Z,1017.17
2018-07-23T03:41:28.491Z,1017.21
2018-07-23T03:42:37.353Z,1017.21
2018-07-23T03:43:46.213Z,1017.22
2018-07-23T03:44:55.073Z,1017.23
2018-07-23T03:46:04.210Z,1017.24
2018-07-23T03:47:13.072Z,1017.19
2018-07-23T03:48:21.932Z,1017.23
2018-07-23T03:49:31.069Z,1017.23
2018-07-23T03:50:40.558Z,1017.19
2018-07-23T03:51:49.420Z,1017.18
2018-07-23T03:52:58.285Z,1017.15
2018-07-23T03:54:07.423Z,1017.18
2018-07-23T03:55:16.280Z,1017.17
2018-07-23T03:56:25.143Z,1017.21
2018-07-23T03:57:34.003Z,1017.21
2018-07-23T03:58:42.863Z,1017.25
2018-07-23T03:59:51.727Z,1017.27
2018-07-23T04:01:00.587Z,1017.28
2018-07-23T04:02:09.600Z,1017.28
2018-07-23T04:03:18.736Z,1017.31
2018-07-23T04:04:27.597Z,1017.33
2018-07-23T04:05:36.732Z,1017.33
2018-07-23T04:06:45.597Z,1017.35
2018-07-23T04:07:55.161Z,1017.33
2018-07-23T04:09:04.025Z,1017.33
2018-07-23T04:10:12.885Z,1017.35
2018-07-23T04:11:21.746Z,1017.33
2018-07-23T04:12:30.624Z,1017.36
2018-07-23T04:13:39.634Z,1017.36
2018-07-23T04:14:48.493Z,1017.4
2018-07-23T04:15:57.356Z,1017.38
2018-07-23T04:17:06.495Z,1017.34
2018-07-23T04:18:15.356Z,1017.36
2018-07-23T04:19:24.573Z,1017.33
2018-07-23T04:20:33.431Z,1017.35
2018-07-23T04:21:42.297Z,1017.35
2018-07-23T04:22:51.156Z,1017.39
2018-07-23T04:24:00.292Z,1017.38
2018-07-23T04:25:09.153Z,1017.37
2018-07-23T04:26:18.294Z,1017.38
2018-07-23T04:27:27.154Z,1017.38
2018-07-23T04:28:36.015Z,1017.41
2018-07-23T04:29:44.876Z,1017.38
2018-07-23T04:30:53.738Z,1017.42
2018-07-23T04:32:02.602Z,1017.41
2018-07-23T04:33:11.461Z,1017.4
2018-07-23T04:34:20.320Z,1017.42
2018-07-23T04:35:29.188Z,1017.45
2018-07-23T04:36:38.042Z,1017.42
2018-07-23T04:37:46.934Z,1017.5
2018-07-23T04:38:56.079Z,1017.48
2018-07-23T04:40:04.945Z,1017.46
2018-07-23T04:41:13.804Z,1017.49
2018-07-23T04:42:22.679Z,1017.49
2018-07-23T04:43:31.529Z,1017.48
2018-07-23T04:44:40.664Z,1017.53
2018-07-23T04:45:49.527Z,1017.59
2018-07-23T04:46:58.390Z,1017.62
2018-07-23T04:48:07.628Z,1017.62
2018-07-23T04:49:16.518Z,1017.58
2018-07-23T04:50:25.351Z,1017.61
2018-07-23T04:51:35.134Z,1017.63
2018-07-23T04:52:44.271Z,1017.62
2018-07-23T04:53:53.134Z,1017.6
2018-07-23T04:55:02.269Z,1017.61
2018-07-23T04:56:11.130Z,1017.61
2018-07-23T04:57:19.994Z,1017.6
2018-07-23T04:58:28.856Z,1017.62
2018-07-23T04:59:37.720Z,1017.62
2018-07-23T05:00:46.579Z,1017.66
2018-07-23T05:01:55.718Z,1017.63
2018-07-23T05:03:04.581Z,1017.65
2018-07-23T05:04:13.445Z,1017.63
2018-07-23T05:05:22.306Z,1017.62
2018-07-23T05:06:31.167Z,1017.66
2018-07-23T05:07:40.304Z,1017.63
2018-07-23T05:08:49.444Z,1017.63
2018-07-23T05:09:58.305Z,1017.64
2018-07-23T05:11:07.171Z,1017.62
2018-07-23T05:12:16.312Z,1017.64
2018-07-23T05:13:25.173Z,1017.67
2018-07-23T05:14:34.035Z,1017.67
2018-07-23T05:15:42.897Z,1017.65
2018-07-23T05:16:52.111Z,1017.65
2018-07-23T05:18:01.248Z,1017.65
2018-07-23T05:19:10.110Z,1017.7
2018-07-23T05:20:18.973Z,1017.69
2018-07-23T05:21:27.833Z,1017.68
2018-07-23T05:22:37.048Z,1017.73
2018-07-23T05:23:45.936Z,1017.71
2018-07-23T05:24:55.789Z,1017.7
2018-07-23T05:26:04.969Z,1017.73
2018-07-23T05:27:13.793Z,1017.75
2018-07-23T05:28:22.656Z,1017.78
2018-07-23T05:29:31.518Z,1017.78
2018-07-23T05:30:40.381Z,1017.78
2018-07-23T05:31:49.294Z,1017.8
2018-07-23T05:32:58.384Z,1017.79
2018-07-23T05:34:07.621Z,1017.77
2018-07-23T05:35:16.485Z,1017.8
2018-07-23T05:36:25.349Z,1017.74
2018-07-23T05:37:34.212Z,1017.78
2018-07-23T05:38:43.074Z,1017.78
2018-07-23T05:39:52.089Z,1017.79
2018-07-23T05:41:01.237Z,1017.78
2018-07-23T05:42:10.374Z,1017.84
2018-07-23T05:43:19.235Z,1017.8
2018-07-23T05:44:28.104Z,1017.81
2018-07-23T05:45:37.117Z,1017.8
2018-07-23T05:46:46.259Z,1017.77
2018-07-23T05:47:55.119Z,1017.8
2018-07-23T05:49:03.978Z,1017.8
2018-07-23T05:50:12.840Z,1017.82
2018-07-23T05:51:21.978Z,1017.83
2018-07-23T05:52:30.839Z,1017.84
2018-07-23T05:53:39.707Z,1017.86
2018-07-23T05:54:48.569Z,1017.85
2018-07-23T05:55:57.706Z,1017.87
2018-07-23T05:57:06.720Z,1017.87
2018-07-23T05:58:15.583Z,1017.84
2018-07-23T05:59:24.447Z,1017.83
2018-07-23T06:00:33.310Z,1017.84
2018-07-23T06:01:42.731Z,1017.81
2018-07-23T06:02:51.872Z,1017.84
2018-07-23T06:04:01.016Z,1017.81
2018-07-23T06:05:09.884Z,1017.84
2018-07-23T06:06:18.789Z,1017.77
2018-07-23T06:07:27.622Z,1017.82
2018-07-23T06:08:36.481Z,1017.84
2018-07-23T06:09:45.345Z,1017.84
2018-07-23T06:10:54.209Z,1017.8
2018-07-23T06:12:03.073Z,1017.78
2018-07-23T06:13:11.980Z,1017.81
2018-07-23T06:14:21.150Z,1017.82
2018-07-23T06:15:30.014Z,1017.8
2018-07-23T06:16:39.150Z,1017.81
2018-07-23T06:17:48.015Z,1017.85
2018-07-23T06:18:57.426Z,1017.84
2018-07-23T06:20:06.290Z,1017.88
2018-07-23T06:21:15.156Z,1017.85
2018-07-23T06:22:24.020Z,1017.87
2018-07-23T06:23:32.890Z,1017.88
2018-07-23T06:24:42.028Z,1017.86
2018-07-23T06:25:51.386Z,1017.86
2018-07-23T06:27:00.184Z,1017.83
2018-07-23T06:28:09.046Z,1017.81
2018-07-23T06:29:17.908Z,1017.88
2018-07-23T06:30:26.827Z,1017.85
2018-07-23T06:31:36.020Z,1017.84
2018-07-23T06:32:44.885Z,1017.85
2018-07-23T06:33:54.034Z,1017.87
2018-07-23T06:35:03.452Z,1017.84
2018-07-23T06:36:12.322Z,1017.87
2018-07-23T06:37:21.563Z,1017.85
2018-07-23T06:38:30.742Z,1017.84
2018-07-23T06:39:39.606Z,1017.86
2018-07-23T06:40:48.472Z,1017.89
2018-07-23T06:41:57.332Z,1017.88
2018-07-23T06:43:06.196Z,1017.9
2018-07-23T06:44:15.061Z,1017.91
2018-07-23T06:45:23.925Z,1017.9
2018-07-23T06:46:33.109Z,1017.92
2018-07-23T06:47:41.933Z,1017.96
2018-07-23T06:48:50.896Z,1017.97
2018-07-23T06:50:00.037Z,1017.96
2018-07-23T06:51:08.901Z,1017.92
2018-07-23T06:52:17.763Z,1017.95
2018-07-23T06:53:26.626Z,1017.95
2018-07-23T06:54:35.490Z,1017.89
2018-07-23T06:55:44.358Z,1017.94
2018-07-23T06:56:53.215Z,1017.95
2018-07-23T06:58:02.352Z,1017.94
2018-07-23T06:59:11.215Z,1017.95
2018-07-23T07:00:20.089Z,1017.98
2018-07-23T07:01:29.234Z,1017.99
2018-07-23T07:02:38.097Z,1017.98
2018-07-23T07:03:47.239Z,1017.97
2018-07-23T07:04:56.106Z,1017.95
2018-07-23T07:06:04.971Z,1017.94
2018-07-23T07:07:13.837Z,1017.97
2018-07-23T07:08:22.702Z,1017.95
2018-07-23T07:09:31.568Z,1017.95
2018-07-23T07:10:40.708Z,1017.97
2018-07-23T07:11:49.873Z,1017.92
2018-07-23T07:12:58.719Z,1017.93
2018-07-23T07:14:07.584Z,1017.93
2018-07-23T07:15:16.447Z,1017.92
2018-07-23T07:16:25.310Z,1017.94
2018-07-23T07:17:34.173Z,1017.93
2018-07-23T07:18:43.035Z,1017.92
2018-07-23T07:19:51.904Z,1017.93
2018-07-23T07:21:00.765Z,1017.92
2018-07-23T07:22:09.631Z,1017.91
2018-07-23T07:23:18.642Z,1017.89
2018-07-23T07:24:27.508Z,1017.89
2018-07-23T07:25:36.654Z,1017.87
2018-07-23T07:26:45.515Z,1017.86
2018-07-23T07:27:54.383Z,1017.92
2018-07-23T07:29:03.873Z,1017.89
2018-07-23T07:30:12.748Z,1017.87
2018-07-23T07:31:21.600Z,1017.91
2018-07-23T07:32:30.464Z,1017.95
2018-07-23T07:33:39.330Z,1017.96
2018-07-23T07:34:48.234Z,1017.94
2018-07-23T07:35:57.056Z,1017.98
2018-07-23T07:37:05.923Z,1018.01
2018-07-23T07:38:15.109Z,1017.96
2018-07-23T07:39:24.275Z,1017.99
2018-07-23T07:40:33.139Z,1017.98
2018-07-23T07:41:42.005Z,1017.95
2018-07-23T07:42:50.870Z,1017.94
2018-07-23T07:44:00.088Z,1017.94
2018-07-23T07:45:09.233Z,1017.9
2018-07-23T07:46:18.159Z,1017.95
2018-07-23T07:47:27.347Z,1017.93
2018-07-23T07:48:36.215Z,1017.91
2018-07-23T07:49:45.077Z,1017.92
2018-07-23T07:50:54.218Z,1017.9
2018-07-23T07:52:03.095Z,1017.93
2018-07-23T07:53:11.958Z,1017.92
2018-07-23T07:54:20.826Z,1017.91
2018-07-23T07:55:29.967Z,1017.95
2018-07-23T07:56:39.107Z,1017.89
2018-07-23T07:57:48.245Z,1017.94
2018-07-23T07:58:57.116Z,1017.92
2018-07-23T08:00:05.977Z,1017.98
2018-07-23T08:01:14.847Z,1017.97
2018-07-23T08:02:23.726Z,1017.97
2018-07-23T08:03:32.607Z,1017.93
2018-07-23T08:04:41.482Z,1017.94
2018-07-23T08:05:50.503Z,1017.92
2018-07-23T08:06:59.383Z,1017.91
2018-07-23T08:08:08.905Z,1017.91
2018-07-23T08:09:17.773Z,1017.92
2018-07-23T08:10:26.634Z,1017.9
2018-07-23T08:11:35.649Z,1017.97
2018-07-23T08:12:44.516Z,1017.9
2018-07-23T08:13:53.479Z,1017.88
2018-07-23T08:15:02.344Z,1017.88
2018-07-23T08:16:11.489Z,1017.82
2018-07-23T08:17:20.478Z,1017.86
2018-07-23T08:18:29.626Z,1017.85
2018-07-23T08:19:38.493Z,1017.84
2018-07-23T08:20:47.631Z,1017.88
2018-07-23T08:21:56.777Z,1017.86
2018-07-23T08:23:05.642Z,1017.86
2018-07-23T08:24:14.545Z,1017.85
2018-07-23T08:25:23.406Z,1017.86
2018-07-23T08:26:32.294Z,1017.8
2018-07-23T08:27:41.171Z,1017.8
2018-07-23T08:28:50.734Z,1017.83
2018-07-23T08:29:59.930Z,1017.78
2018-07-23T08:31:08.796Z,1017.81
2018-07-23T08:32:17.734Z,1017.8
2018-07-23T08:33:27.055Z,1017.86
2018-07-23T08:34:35.923Z,1017.89
2018-07-23T08:35:44.809Z,1017.84
2018-07-23T08:36:54.239Z,1017.87
2018-07-23T08:38:03.381Z,1017.89
2018-07-23T08:39:12.247Z,1017.92
2018-07-23T08:40:21.302Z,1017.88
2018-07-23T08:41:30.168Z,1017.91
2018-07-23T08:42:39.060Z,1017.92
2018-07-23T08:43:47.922Z,1017.94
2018-07-23T08:44:56.811Z,1017.95
2018-07-23T08:46:06.933Z,1017.96
2018-07-23T08:47:15.828Z,1018.01
2018-07-23T08:48:24.705Z,1017.99
2018-07-23T08:49:33.915Z,1017.97
2018-07-23T08:50:42.780Z,1017.93
2018-07-23T08:51:51.643Z,1017.98
2018-07-23T08:53:00.557Z,1018.03
2018-07-23T08:54:09.431Z,1018
2018-07-23T08:55:18.371Z,1017.94
2018-07-23T08:56:27.237Z,1017.97
2018-07-23T08:57:36.102Z,1017.99
2018-07-23T08:58:44.976Z,1017.94
2018-07-23T08:59:53.843Z,1017.94
2018-07-23T09:01:02.726Z,1017.99
2018-07-23T09:02:11.623Z,1017.96
2018-07-23T09:03:20.609Z,1017.98
2018-07-23T09:04:29.496Z,1017.97
2018-07-23T09:05:38.378Z,1017.95
2018-07-23T09:06:47.584Z,1017.99
2018-07-23T09:07:56.449Z,1017.95
2018-07-23T09:09:05.315Z,1017.9
2018-07-23T09:10:14.180Z,1017.92
2018-07-23T09:11:23.050Z,1017.94
2018-07-23T09:12:32.190Z,1017.93
2018-07-23T09:13:41.054Z,1017.98
2018-07-23T09:14:50.296Z,1018.03
2018-07-23T09:15:59.161Z,1017.95
2018-07-23T09:17:08.306Z,1017.97
2018-07-23T09:18:17.166Z,1018.01
2018-07-23T09:19:26.037Z,1017.96
2018-07-23T09:20:35.180Z,1018.05
2018-07-23T09:21:44.042Z,1017.97
2018-07-23T09:22:53.187Z,1017.99
2018-07-23T09:24:02.053Z,1017.99
2018-07-23T09:25:10.926Z,1018
2018-07-23T09:26:20.142Z,1018.05
2018-07-23T09:27:29.007Z,1018.04
2018-07-23T09:28:37.875Z,1018.05
2018-07-23T09:29:47.022Z,1018
2018-07-23T09:30:55.935Z,1018.02
2018-07-23T09:32:05.190Z,1018.04
2018-07-23T09:33:14.055Z,1017.98
2018-07-23T09:34:23.205Z,1018
2018-07-23T09:35:32.076Z,1018.01
2018-07-23T09:36:41.221Z,1018.05
2018-07-23T09:37:50.089Z,1018.01
2018-07-23T09:38:58.956Z,1018.04
2018-07-23T09:40:07.823Z,1018
2018-07-23T09:41:16.696Z,1017.98
2018-07-23T09:42:25.843Z,1018.02
2018-07-23T09:43:34.711Z,1017.95
2018-07-23T09:44:43.857Z,1017.96
2018-07-23T09:45:53.042Z,1017.98
2018-07-23T09:47:02.351Z,1017.9
2018-07-23T09:48:12.181Z,1017.92
2018-07-23T09:49:21.528Z,1017.93
2018-07-23T09:50:30.668Z,1017.87
2018-07-23T09:51:39.920Z,1017.9
2018-07-23T09:52:49.237Z,1017.82
2018-07-23T09:53:58.415Z,1017.85
2018-07-23T09:55:07.716Z,1017.81
2018-07-23T09:56:16.583Z,1017.82
2018-07-23T09:57:25.447Z,1017.83
2018-07-23T09:58:34.315Z,1017.86
2018-07-23T09:59:43.213Z,1017.88
2018-07-23T10:00:52.429Z,1017.84
2018-07-23T10:02:01.297Z,1017.84
2018-07-23T10:03:10.292Z,1017.83
2018-07-23T10:04:19.930Z,1017.83
2018-07-23T10:05:28.796Z,1017.86
2018-07-23T10:06:37.662Z,1017.82
2018-07-23T10:07:47.112Z,1017.78
2018-07-23T10:08:55.978Z,1017.79
2018-07-23T10:10:04.849Z,1017.88
2018-07-23T10:11:13.729Z,1017.84
2018-07-23T10:12:22.616Z,1017.89
2018-07-23T10:13:31.483Z,1017.91
2018-07-23T10:14:40.625Z,1017.87
2018-07-23T10:15:49.493Z,1017.82
2018-07-23T10:16:58.362Z,1017.83
2018-07-23T10:18:07.383Z,1017.85
2018-07-23T10:19:16.311Z,1017.8
2018-07-23T10:20:25.454Z,1017.87
2018-07-23T10:21:34.596Z,1017.82
2018-07-23T10:22:43.458Z,1017.86
2018-07-23T10:23:52.327Z,1017.8
2018-07-23T10:25:01.205Z,1017.83
2018-07-23T10:26:10.075Z,1017.8
2018-07-23T10:27:18.939Z,1017.78
2018-07-23T10:28:27.820Z,1017.77
2018-07-23T10:29:37.145Z,1017.79
2018-07-23T10:30:45.904Z,1017.8
2018-07-23T10:31:54.768Z,1017.81
2018-07-23T10:33:03.635Z,1017.78
2018-07-23T10:34:12.501Z,1017.76
2018-07-23T10:35:21.718Z,1017.81
2018-07-23T10:36:30.881Z,1017.76
2018-07-23T10:37:39.747Z,1017.78
2018-07-23T10:38:48.615Z,1017.81
2018-07-23T10:39:57.482Z,1017.77
2018-07-23T10:41:06.654Z,1017.76
2018-07-23T10:42:15.800Z,1017.79
2018-07-23T10:43:24.665Z,1017.81
2018-07-23T10:44:33.537Z,1017.79
2018-07-23T10:45:42.682Z,1017.78
2018-07-23T10:46:51.549Z,1017.78
2018-07-23T10:48:00.415Z,1017.82
2018-07-23T10:49:09.836Z,1017.77
2018-07-23T10:50:18.703Z,1017.72
2018-07-23T10:51:27.570Z,1017.74
2018-07-23T10:52:36.588Z,1017.73
2018-07-23T10:53:45.459Z,1017.69
2018-07-23T10:54:54.599Z,1017.66
2018-07-23T10:56:03.466Z,1017.64
2018-07-23T10:57:12.408Z,1017.63
2018-07-23T10:58:21.568Z,1017.65
2018-07-23T10:59:30.637Z,1017.63
2018-07-23T11:00:39.504Z,1017.6
2018-07-23T11:01:48.383Z,1017.65
2018-07-23T11:02:57.728Z,1017.6
2018-07-23T11:04:07.352Z,1017.66
2018-07-23T11:05:16.914Z,1017.63
2018-07-23T11:06:25.777Z,1017.64
2018-07-23T11:07:34.652Z,1017.6
2018-07-23T11:08:43.560Z,1017.6
2018-07-23T11:09:52.522Z,1017.61
2018-07-23T11:11:01.392Z,1017.59
2018-07-23T11:12:10.265Z,1017.59
2018-07-23T11:13:19.162Z,1017.59
2018-07-23T11:14:28.058Z,1017.57
2018-07-23T11:15:37.574Z,1017.56
2018-07-23T11:16:46.449Z,1017.56
2018-07-23T11:17:55.320Z,1017.55
2018-07-23T11:19:04.186Z,1017.58
2018-07-23T11:20:13.357Z,1017.57
2018-07-23T11:21:22.500Z,1017.61
2018-07-23T11:22:31.367Z,1017.64
2018-07-23T11:23:40.300Z,1017.66
2018-07-23T11:24:49.194Z,1017.64
2018-07-23T11:25:58.045Z,1017.64
2018-07-23T11:27:07.346Z,1017.59
2018-07-23T11:28:16.212Z,1017.64
2018-07-23T11:29:25.195Z,1017.7
2018-07-23T11:30:34.386Z,1017.64
2018-07-23T11:31:43.529Z,1017.7
2018-07-23T11:32:52.668Z,1017.66
2018-07-23T11:34:01.535Z,1017.66
2018-07-23T11:35:10.403Z,1017.61
2018-07-23T11:36:19.282Z,1017.63
2018-07-23T11:37:28.149Z,1017.63
2018-07-23T11:38:37.372Z,1017.61
2018-07-23T11:39:46.247Z,1017.62
2018-07-23T11:40:55.113Z,1017.67
2018-07-23T11:42:03.977Z,1017.62
2018-07-23T11:43:12.845Z,1017.62
2018-07-23T11:44:21.995Z,1017.64
2018-07-23T11:45:31.141Z,1017.66
2018-07-23T11:46:40.011Z,1017.62
2018-07-23T11:47:48.879Z,1017.6
2018-07-23T11:48:57.746Z,1017.62
2018-07-23T11:50:06.616Z,1017.63
2018-07-23T11:51:15.484Z,1017.6
2018-07-23T11:52:24.904Z,1017.61
2018-07-23T11:53:33.864Z,1017.65
2018-07-23T11:54:42.644Z,1017.62
2018-07-23T11:55:51.663Z,1017.64
2018-07-23T11:57:00.607Z,1017.63
2018-07-23T11:58:09.401Z,1017.62
2018-07-23T11:59:18.272Z,1017.63
2018-07-23T12:00:27.424Z,1017.67
2018-07-23T12:01:36.853Z,1017.72
2018-07-23T12:02:45.722Z,1017.72
2018-07-23T12:03:54.589Z,1017.72
2018-07-23T12:05:03.470Z,1017.67
2018-07-23T12:06:12.339Z,1017.7
2018-07-23T12:07:21.322Z,1017.66
2018-07-23T12:08:30.200Z,1017.73
2018-07-23T12:09:39.069Z,1017.73
2018-07-23T12:10:47.941Z,1017.76
2018-07-23T12:11:56.900Z,1017.7
2018-07-23T12:13:05.834Z,1017.75
2018-07-23T12:14:14.707Z,1017.71
2018-07-23T12:15:23.581Z,1017.77
2018-07-23T12:16:32.456Z,1017.76
2018-07-23T12:17:41.676Z,1017.72
2018-07-23T12:18:50.580Z,1017.72
2018-07-23T12:19:59.451Z,1017.76
2018-07-23T12:21:08.327Z,1017.75
2018-07-23T12:22:17.483Z,1017.75
2018-07-23T12:23:26.360Z,1017.78
2018-07-23T12:24:35.586Z,1017.71
2018-07-23T12:25:44.748Z,1017.7
2018-07-23T12:26:53.623Z,1017.77
2018-07-23T12:28:02.497Z,1017.77
2018-07-23T12:29:11.646Z,1017.76
2018-07-23T12:30:20.519Z,1017.85
2018-07-23T12:31:29.401Z,1017.87
2018-07-23T12:32:38.275Z,1017.78
2018-07-23T12:33:47.153Z,1017.75
2018-07-23T12:34:56.028Z,1017.73
2018-07-23T12:36:04.905Z,1017.68
2018-07-23T12:37:14.057Z,1017.7
2018-07-23T12:38:22.966Z,1017.67
2018-07-23T12:39:31.988Z,1017.67
2018-07-23T12:40:41.095Z,1017.68
2018-07-23T12:41:50.173Z,1017.71
2018-07-23T12:42:59.211Z,1017.68
2018-07-23T12:44:08.499Z,1017.67
2018-07-23T12:45:17.817Z,1017.67
2018-07-23T12:46:26.966Z,1017.69
2018-07-23T12:47:36.194Z,1017.69
2018-07-23T12:48:45.990Z,1017.68
2018-07-23T12:49:54.866Z,1017.66
2018-07-23T12:51:03.746Z,1017.63
2018-07-23T12:52:12.623Z,1017.63
2018-07-23T12:53:22.200Z,1017.66
2018-07-23T12:54:31.371Z,1017.62
2018-07-23T12:55:40.237Z,1017.63
2018-07-23T12:56:49.400Z,1017.63
2018-07-23T12:57:58.564Z,1017.64
2018-07-23T12:59:07.543Z,1017.65
2018-07-23T13:00:16.710Z,1017.62
2018-07-23T13:01:25.592Z,1017.65
2018-07-23T13:02:34.483Z,1017.64
2018-07-23T13:03:43.379Z,1017.63
2018-07-23T13:04:52.537Z,1017.6
2018-07-23T13:06:01.708Z,1017.61
2018-07-23T13:07:10.624Z,1017.6
2018-07-23T13:08:19.514Z,1017.57
2018-07-23T13:11:11.698Z,1017.55
2018-07-23T13:12:21.239Z,1017.58
2018-07-23T13:13:30.124Z,1017.58
2018-07-23T13:14:39.006Z,1017.57
2018-07-23T13:15:47.935Z,1017.58
2018-07-23T13:16:56.816Z,1017.55
2018-07-23T13:18:05.702Z,1017.6
2018-07-23T13:19:14.667Z,1017.54
2018-07-23T13:20:23.887Z,1017.49
2018-07-23T13:21:32.769Z,1017.52
2018-07-23T13:22:41.650Z,1017.56
2018-07-23T13:23:50.824Z,1017.6
2018-07-23T13:24:59.981Z,1017.56
2018-07-23T13:26:08.867Z,1017.58
2018-07-23T13:27:17.768Z,1017.57
2018-07-23T13:28:26.652Z,1017.6
2018-07-23T13:29:35.810Z,1017.58
2018-07-23T13:30:44.691Z,1017.57
2018-07-23T13:31:53.574Z,1017.55
2018-07-23T13:33:02.455Z,1017.51
2018-07-23T13:34:11.336Z,1017.52
2018-07-23T13:35:20.498Z,1017.49
2018-07-23T13:36:29.386Z,1017.5
2018-07-23T13:37:38.269Z,1017.51
2018-07-23T13:38:47.436Z,1017.52
2018-07-23T13:39:56.317Z,1017.52
2018-07-23T13:41:05.199Z,1017.51
2018-07-23T13:42:14.359Z,1017.5
2018-07-23T13:43:23.241Z,1017.51
2018-07-23T13:44:32.120Z,1017.51
2018-07-23T13:45:41.377Z,1017.5
2018-07-23T13:46:50.265Z,1017.53
2018-07-23T13:47:59.142Z,1017.47
2018-07-23T13:49:08.024Z,1017.51
2018-07-23T13:50:17.461Z,1017.48
2018-07-23T13:51:26.443Z,1017.48
2018-07-23T13:52:35.335Z,1017.48
2018-07-23T13:53:44.219Z,1017.52
2018-07-23T13:54:53.377Z,1017.53
2018-07-23T13:56:02.533Z,1017.51
2018-07-23T13:57:11.695Z,1017.46
2018-07-23T13:58:20.577Z,1017.49
2018-07-23T13:59:29.461Z,1017.48
2018-07-23T14:00:38.343Z,1017.5